sensor_id;sensor_type;location;lat;lon;timestamp;P1;durP1;ratioP1;P2;durP2;ratioP2
24663;SDS011;12791;50.992;13.788;2022-12-18T04:02:38;20.30;;;10.88;;
24663;SDS011;12791;50.992;13.788;2022-12-18T04:05:09;22.67;;;11.25;;
24663;SDS011;12791;50.992;13.788;2022-12-18T04:07:38;20.80;;;11.40;;
24663;SDS011;12791;50.992;13.788;2022-12-18T04:10:06;22.67;;;11.80;;
24663;SDS011;12791;50.992;13.788;2022-12-18T04:12:34;23.95;;;10.88;;
24663;SDS011;12791;50.992;13.788;2022-12-18T04:15:04;26.73;;;12.70;;
24663;SDS011;12791;50.992;13.788;2022-12-18T04:17:32;20.38;;;11.27;;
24663;SDS011;12791;50.992;13.788;2022-12-18T04:20:00;22.38;;;10.82;;
24663;SDS011;12791;50.992;13.788;2022-12-18T04:22:26;20.15;;;10.48;;
24663;SDS011;12791;50.992;13.788;2022-12-18T04:24:53;24.90;;;11.68;;
24663;SDS011;12791;50.992;13.788;2022-12-18T04:27:20;23.42;;;12.23;;
24663;SDS011;12791;50.992;13.788;2022-12-18T04:29:47;19.75;;;10.00;;
24663;SDS011;12791;50.992;13.788;2022-12-18T04:32:14;22.05;;;11.63;;
24663;SDS011;12791;50.992;13.788;2022-12-18T04:34:41;20.58;;;10.73;;
24663;SDS011;12791;50.992;13.788;2022-12-18T04:37:09;22.80;;;11.40;;
24663;SDS011;12791;50.992;13.788;2022-12-18T04:39:36;20.88;;;10.68;;
24663;SDS011;12791;50.992;13.788;2022-12-18T04:42:03;20.02;;;10.80;;
24663;SDS011;12791;50.992;13.788;2022-12-18T04:44:29;21.65;;;11.18;;
24663;SDS011;12791;50.992;13.788;2022-12-18T04:46:56;21.63;;;10.75;;
24663;SDS011;12791;50.992;13.788;2022-12-18T04:49:23;19.77;;;10.98;;
24663;SDS011;12791;50.992;13.788;2022-12-18T04:51:50;18.75;;;10.23;;
24663;SDS011;12791;50.992;13.788;2022-12-18T04:54:19;21.55;;;10.25;;
24663;SDS011;12791;50.992;13.788;2022-12-18T04:56:46;22.75;;;12.38;;
24663;SDS011;12791;50.992;13.788;2022-12-18T04:59:13;20.35;;;10.60;;
24663;SDS011;12791;50.992;13.788;2022-12-18T05:01:39;19.63;;;10.15;;
24663;SDS011;12791;50.992;13.788;2022-12-18T05:04:06;16.73;;;9.07;;
24663;SDS011;12791;50.992;13.788;2022-12-18T05:06:33;18.80;;;9.40;;
24663;SDS011;12791;50.992;13.788;2022-12-18T05:09:00;17.25;;;8.93;;
24663;SDS011;12791;50.992;13.788;2022-12-18T05:11:28;19.40;;;11.00;;
24663;SDS011;12791;50.992;13.788;2022-12-18T05:13:55;19.35;;;10.05;;
24663;SDS011;12791;50.992;13.788;2022-12-18T05:16:21;18.27;;;9.43;;
24663;SDS011;12791;50.992;13.788;2022-12-18T05:18:48;20.05;;;10.50;;
24663;SDS011;12791;50.992;13.788;2022-12-18T05:21:15;20.70;;;10.57;;
24663;SDS011;12791;50.992;13.788;2022-12-18T05:23:42;19.85;;;9.38;;
24663;SDS011;12791;50.992;13.788;2022-12-18T05:26:08;21.08;;;10.52;;
24663;SDS011;12791;50.992;13.788;2022-12-18T05:28:41;18.98;;;9.63;;
24663;SDS011;12791;50.992;13.788;2022-12-18T05:31:08;15.82;;;9.15;;
24663;SDS011;12791;50.992;13.788;2022-12-18T05:33:35;18.00;;;9.75;;
24663;SDS011;12791;50.992;13.788;2022-12-18T05:36:02;17.58;;;9.50;;
24663;SDS011;12791;50.992;13.788;2022-12-18T05:38:31;22.08;;;11.35;;
24663;SDS011;12791;50.992;13.788;2022-12-18T05:40:59;17.90;;;9.85;;
24663;SDS011;12791;50.992;13.788;2022-12-18T05:43:26;21.85;;;11.10;;
24663;SDS011;12791;50.992;13.788;2022-12-18T05:45:55;24.27;;;11.63;;
24663;SDS011;12791;50.992;13.788;2022-12-18T05:48:22;22.23;;;11.80;;
24663;SDS011;12791;50.992;13.788;2022-12-18T05:50:50;19.02;;;10.10;;
24663;SDS011;12791;50.992;13.788;2022-12-18T05:53:18;22.15;;;11.85;;
24663;SDS011;12791;50.992;13.788;2022-12-18T05:55:46;20.15;;;10.45;;
24663;SDS011;12791;50.992;13.788;2022-12-18T05:58:13;22.13;;;11.25;;
24663;SDS011;12791;50.992;13.788;2022-12-18T06:00:42;19.05;;;11.00;;
24663;SDS011;12791;50.992;13.788;2022-12-18T06:03:12;23.92;;;11.10;;
24663;SDS011;12791;50.992;13.788;2022-12-18T06:05:40;24.73;;;11.65;;
24663;SDS011;12791;50.992;13.788;2022-12-18T06:08:08;22.05;;;10.05;;
24663;SDS011;12791;50.992;13.788;2022-12-18T06:10:35;19.75;;;10.25;;
24663;SDS011;12791;50.992;13.788;2022-12-18T06:13:03;23.67;;;11.65;;
24663;SDS011;12791;50.992;13.788;2022-12-18T06:15:30;19.63;;;9.93;;
24663;SDS011;12791;50.992;13.788;2022-12-18T06:17:57;21.85;;;10.95;;
24663;SDS011;12791;50.992;13.788;2022-12-18T06:20:25;23.55;;;11.38;;
24663;SDS011;12791;50.992;13.788;2022-12-18T06:22:52;26.95;;;12.13;;
24663;SDS011;12791;50.992;13.788;2022-12-18T06:25:18;24.70;;;11.25;;
24663;SDS011;12791;50.992;13.788;2022-12-18T06:27:46;21.23;;;11.30;;
24663;SDS011;12791;50.992;13.788;2022-12-18T06:30:13;22.40;;;11.73;;
24663;SDS011;12791;50.992;13.788;2022-12-18T06:32:40;20.85;;;11.07;;
24663;SDS011;12791;50.992;13.788;2022-12-18T06:35:07;25.38;;;11.95;;
24663;SDS011;12791;50.992;13.788;2022-12-18T06:37:36;24.73;;;12.63;;
24663;SDS011;12791;50.992;13.788;2022-12-18T06:40:03;25.98;;;11.93;;
24663;SDS011;12791;50.992;13.788;2022-12-18T06:42:30;22.00;;;11.27;;
24663;SDS011;12791;50.992;13.788;2022-12-18T06:44:57;25.52;;;11.60;;
24663;SDS011;12791;50.992;13.788;2022-12-18T06:47:24;23.98;;;12.15;;
24663;SDS011;12791;50.992;13.788;2022-12-18T06:49:51;22.45;;;11.98;;
24663;SDS011;12791;50.992;13.788;2022-12-18T06:52:17;22.23;;;11.50;;
24663;SDS011;12791;50.992;13.788;2022-12-18T06:54:45;26.40;;;12.18;;
24663;SDS011;12791;50.992;13.788;2022-12-18T06:57:12;22.70;;;10.93;;
24663;SDS011;12791;50.992;13.788;2022-12-18T06:59:39;22.70;;;11.70;;
24663;SDS011;12791;50.992;13.788;2022-12-18T07:02:06;21.90;;;11.38;;
24663;SDS011;12791;50.992;13.788;2022-12-18T07:04:32;21.17;;;11.48;;
24663;SDS011;12791;50.992;13.788;2022-12-18T07:06:59;24.38;;;12.38;;
24663;SDS011;12791;50.992;13.788;2022-12-18T07:09:26;26.63;;;12.73;;
24663;SDS011;12791;50.992;13.788;2022-12-18T07:11:54;26.77;;;14.70;;
24663;SDS011;12791;50.992;13.788;2022-12-18T07:14:21;23.17;;;12.50;;
24663;SDS011;12791;50.992;13.788;2022-12-18T07:16:47;21.85;;;11.65;;
24663;SDS011;12791;50.992;13.788;2022-12-18T07:19:14;24.42;;;11.75;;
24663;SDS011;12791;50.992;13.788;2022-12-18T07:21:41;25.25;;;12.18;;
24663;SDS011;12791;50.992;13.788;2022-12-18T07:24:08;23.02;;;10.80;;
24663;SDS011;12791;50.992;13.788;2022-12-18T07:26:34;22.20;;;10.88;;
24663;SDS011;12791;50.992;13.788;2022-12-18T07:29:02;19.88;;;9.98;;
24663;SDS011;12791;50.992;13.788;2022-12-18T07:31:29;17.60;;;10.00;;
24663;SDS011;12791;50.992;13.788;2022-12-18T07:33:56;24.08;;;12.43;;
24663;SDS011;12791;50.992;13.788;2022-12-18T07:36:23;26.92;;;14.25;;
24663;SDS011;12791;50.992;13.788;2022-12-18T07:38:50;25.45;;;13.55;;
24663;SDS011;12791;50.992;13.788;2022-12-18T07:41:17;29.67;;;14.98;;
24663;SDS011;12791;50.992;13.788;2022-12-18T07:43:45;27.40;;;15.15;;
24663;SDS011;12791;50.992;13.788;2022-12-18T07:46:14;29.77;;;14.20;;
24663;SDS011;12791;50.992;13.788;2022-12-18T07:48:41;25.13;;;13.40;;
24663;SDS011;12791;50.992;13.788;2022-12-18T07:51:08;24.58;;;12.80;;
24663;SDS011;12791;50.992;13.788;2022-12-18T07:53:35;26.38;;;13.60;;
24663;SDS011;12791;50.992;13.788;2022-12-18T07:56:03;32.70;;;15.23;;
24663;SDS011;12791;50.992;13.788;2022-12-18T07:58:31;33.63;;;16.73;;
24663;SDS011;12791;50.992;13.788;2022-12-18T08:01:02;35.95;;;18.30;;
24663;SDS011;12791;50.992;13.788;2022-12-18T08:03:31;31.65;;;17.50;;
24663;SDS011;12791;50.992;13.788;2022-12-18T08:05:59;33.42;;;17.58;;
24663;SDS011;12791;50.992;13.788;2022-12-18T08:08:26;33.55;;;18.13;;
24663;SDS011;12791;50.992;13.788;2022-12-18T08:10:53;35.95;;;17.95;;
24663;SDS011;12791;50.992;13.788;2022-12-18T08:13:19;36.38;;;19.45;;
24663;SDS011;12791;50.992;13.788;2022-12-18T08:15:46;32.75;;;18.05;;
24663;SDS011;12791;50.992;13.788;2022-12-18T08:18:21;36.17;;;18.60;;
24663;SDS011;12791;50.992;13.788;2022-12-18T08:20:49;33.90;;;18.48;;
24663;SDS011;12791;50.992;13.788;2022-12-18T08:23:15;37.33;;;18.38;;
24663;SDS011;12791;50.992;13.788;2022-12-18T08:25:42;36.03;;;18.95;;
24663;SDS011;12791;50.992;13.788;2022-12-18T08:28:10;38.60;;;19.55;;
24663;SDS011;12791;50.992;13.788;2022-12-18T08:30:36;36.38;;;18.15;;
24663;SDS011;12791;50.992;13.788;2022-12-18T08:33:03;38.40;;;19.20;;
24663;SDS011;12791;50.992;13.788;2022-12-18T08:35:34;35.92;;;18.10;;
24663;SDS011;12791;50.992;13.788;2022-12-18T08:38:02;37.45;;;19.10;;
24663;SDS011;12791;50.992;13.788;2022-12-18T08:40:29;37.67;;;18.73;;
24663;SDS011;12791;50.992;13.788;2022-12-18T08:42:56;32.58;;;18.23;;
24663;SDS011;12791;50.992;13.788;2022-12-18T08:45:40;34.45;;;19.25;;
24663;SDS011;12791;50.992;13.788;2022-12-18T08:48:07;36.15;;;18.75;;
24663;SDS011;12791;50.992;13.788;2022-12-18T08:50:34;37.58;;;19.13;;
24663;SDS011;12791;50.992;13.788;2022-12-18T08:53:03;36.78;;;18.90;;
24663;SDS011;12791;50.992;13.788;2022-12-18T08:55:30;40.28;;;20.48;;
24663;SDS011;12791;50.992;13.788;2022-12-18T08:57:57;36.25;;;19.70;;
24663;SDS011;12791;50.992;13.788;2022-12-18T09:00:24;42.78;;;20.88;;
24663;SDS011;12791;50.992;13.788;2022-12-18T09:02:50;36.83;;;19.92;;
24663;SDS011;12791;50.992;13.788;2022-12-18T09:05:17;36.15;;;19.58;;
24663;SDS011;12791;50.992;13.788;2022-12-18T09:07:44;36.88;;;19.17;;
24663;SDS011;12791;50.992;13.788;2022-12-18T09:10:12;33.38;;;17.90;;
24663;SDS011;12791;50.992;13.788;2022-12-18T09:12:39;34.58;;;18.88;;
24663;SDS011;12791;50.992;13.788;2022-12-18T09:15:06;38.33;;;21.08;;
24663;SDS011;12791;50.992;13.788;2022-12-18T09:17:33;38.80;;;21.05;;
24663;SDS011;12791;50.992;13.788;2022-12-18T09:19:59;43.10;;;22.10;;
24663;SDS011;12791;50.992;13.788;2022-12-18T09:22:26;43.45;;;22.45;;
24663;SDS011;12791;50.992;13.788;2022-12-18T09:24:53;45.50;;;23.58;;
24663;SDS011;12791;50.992;13.788;2022-12-18T09:27:21;46.97;;;23.63;;
24663;SDS011;12791;50.992;13.788;2022-12-18T09:29:48;50.42;;;23.60;;
24663;SDS011;12791;50.992;13.788;2022-12-18T09:32:15;46.10;;;24.17;;
24663;SDS011;12791;50.992;13.788;2022-12-18T09:34:41;48.03;;;25.48;;
24663;SDS011;12791;50.992;13.788;2022-12-18T09:37:08;45.40;;;23.73;;
24663;SDS011;12791;50.992;13.788;2022-12-18T09:39:35;51.35;;;25.98;;
24663;SDS011;12791;50.992;13.788;2022-12-18T09:42:02;50.45;;;26.92;;
24663;SDS011;12791;50.992;13.788;2022-12-18T09:44:31;52.30;;;24.98;;
24663;SDS011;12791;50.992;13.788;2022-12-18T09:49:31;49.67;;;23.35;;
24663;SDS011;12791;50.992;13.788;2022-12-18T09:52:04;45.38;;;23.90;;
24663;SDS011;12791;50.992;13.788;2022-12-18T09:54:36;47.05;;;24.10;;
24663;SDS011;12791;50.992;13.788;2022-12-18T09:57:10;49.00;;;26.90;;
24663;SDS011;12791;50.992;13.788;2022-12-18T09:59:41;43.58;;;23.40;;
24663;SDS011;12791;50.992;13.788;2022-12-18T10:02:15;48.03;;;25.35;;
24663;SDS011;12791;50.992;13.788;2022-12-18T10:04:44;47.25;;;24.55;;
24663;SDS011;12791;50.992;13.788;2022-12-18T10:07:21;48.17;;;24.35;;
24663;SDS011;12791;50.992;13.788;2022-12-18T10:09:57;54.40;;;27.52;;
24663;SDS011;12791;50.992;13.788;2022-12-18T10:12:31;47.47;;;25.15;;
24663;SDS011;12791;50.992;13.788;2022-12-18T10:15:06;47.55;;;25.00;;
24663;SDS011;12791;50.992;13.788;2022-12-18T10:17:41;55.78;;;28.33;;
24663;SDS011;12791;50.992;13.788;2022-12-18T10:20:15;50.75;;;26.42;;
24663;SDS011;12791;50.992;13.788;2022-12-18T10:22:49;58.97;;;29.02;;
24663;SDS011;12791;50.992;13.788;2022-12-18T10:25:22;52.00;;;28.45;;
24663;SDS011;12791;50.992;13.788;2022-12-18T10:27:53;55.78;;;28.30;;
24663;SDS011;12791;50.992;13.788;2022-12-18T10:30:25;55.75;;;28.70;;
24663;SDS011;12791;50.992;13.788;2022-12-18T10:32:52;56.97;;;28.90;;
24663;SDS011;12791;50.992;13.788;2022-12-18T10:35:22;52.45;;;27.60;;
24663;SDS011;12791;50.992;13.788;2022-12-18T10:38:04;53.97;;;27.65;;
24663;SDS011;12791;50.992;13.788;2022-12-18T10:40:36;55.45;;;28.73;;
24663;SDS011;12791;50.992;13.788;2022-12-18T10:43:16;58.25;;;29.10;;
24663;SDS011;12791;50.992;13.788;2022-12-18T10:45:59;59.63;;;29.02;;
24663;SDS011;12791;50.992;13.788;2022-12-18T10:48:28;53.33;;;27.15;;
24663;SDS011;12791;50.992;13.788;2022-12-18T10:50:56;60.95;;;28.92;;
24663;SDS011;12791;50.992;13.788;2022-12-18T10:53:24;57.80;;;30.02;;
24663;SDS011;12791;50.992;13.788;2022-12-18T10:55:53;55.63;;;28.98;;
24663;SDS011;12791;50.992;13.788;2022-12-18T10:58:23;56.92;;;29.88;;
24663;SDS011;12791;50.992;13.788;2022-12-18T11:01:03;59.45;;;28.98;;
24663;SDS011;12791;50.992;13.788;2022-12-18T11:03:33;55.30;;;28.25;;
24663;SDS011;12791;50.992;13.788;2022-12-18T11:06:02;59.15;;;30.80;;
24663;SDS011;12791;50.992;13.788;2022-12-18T11:08:30;59.30;;;29.00;;
24663;SDS011;12791;50.992;13.788;2022-12-18T11:10:57;55.67;;;29.10;;
24663;SDS011;12791;50.992;13.788;2022-12-18T11:13:24;64.95;;;30.88;;
24663;SDS011;12791;50.992;13.788;2022-12-18T11:15:53;68.95;;;32.63;;
24663;SDS011;12791;50.992;13.788;2022-12-18T11:18:25;69.03;;;33.15;;
24663;SDS011;12791;50.992;13.788;2022-12-18T11:23:22;61.50;;;28.05;;
24663;SDS011;12791;50.992;13.788;2022-12-18T11:25:54;60.95;;;28.83;;
24663;SDS011;12791;50.992;13.788;2022-12-18T11:28:28;55.35;;;27.17;;
24663;SDS011;12791;50.992;13.788;2022-12-18T11:31:16;55.10;;;27.63;;
24663;SDS011;12791;50.992;13.788;2022-12-18T11:33:47;61.83;;;29.58;;
24663;SDS011;12791;50.992;13.788;2022-12-18T11:36:26;56.85;;;27.20;;
24663;SDS011;12791;50.992;13.788;2022-12-18T11:38:57;60.22;;;27.70;;
24663;SDS011;12791;50.992;13.788;2022-12-18T11:41:29;59.65;;;27.92;;
24663;SDS011;12791;50.992;13.788;2022-12-18T11:44:18;59.08;;;28.25;;
24663;SDS011;12791;50.992;13.788;2022-12-18T11:46:53;57.35;;;27.00;;
24663;SDS011;12791;50.992;13.788;2022-12-18T11:49:27;55.33;;;26.10;;
24663;SDS011;12791;50.992;13.788;2022-12-18T11:52:00;61.08;;;28.60;;
24663;SDS011;12791;50.992;13.788;2022-12-18T11:54:31;56.83;;;26.75;;
24663;SDS011;12791;50.992;13.788;2022-12-18T11:56:58;55.85;;;26.42;;
24663;SDS011;12791;50.992;13.788;2022-12-18T11:59:33;57.75;;;27.30;;
24663;SDS011;12791;50.992;13.788;2022-12-18T12:02:11;54.95;;;25.52;;
24663;SDS011;12791;50.992;13.788;2022-12-18T12:04:53;58.20;;;27.63;;
24663;SDS011;12791;50.992;13.788;2022-12-18T12:07:34;55.25;;;26.83;;
24663;SDS011;12791;50.992;13.788;2022-12-18T12:10:12;56.55;;;27.42;;
24663;SDS011;12791;50.992;13.788;2022-12-18T12:12:55;57.35;;;27.63;;
24663;SDS011;12791;50.992;13.788;2022-12-18T12:15:31;57.22;;;27.40;;
24663;SDS011;12791;50.992;13.788;2022-12-18T12:18:07;58.53;;;24.83;;
24663;SDS011;12791;50.992;13.788;2022-12-18T12:20:49;49.20;;;24.90;;
24663;SDS011;12791;50.992;13.788;2022-12-18T12:23:27;52.17;;;25.33;;
24663;SDS011;12791;50.992;13.788;2022-12-18T12:26:06;52.25;;;26.90;;
24663;SDS011;12791;50.992;13.788;2022-12-18T12:28:41;51.75;;;25.70;;
24663;SDS011;12791;50.992;13.788;2022-12-18T12:31:21;49.45;;;25.13;;
24663;SDS011;12791;50.992;13.788;2022-12-18T12:33:57;49.90;;;24.05;;
24663;SDS011;12791;50.992;13.788;2022-12-18T12:36:38;50.65;;;24.35;;
24663;SDS011;12791;50.992;13.788;2022-12-18T12:39:21;53.65;;;25.92;;
24663;SDS011;12791;50.992;13.788;2022-12-18T12:41:53;53.83;;;26.63;;
24663;SDS011;12791;50.992;13.788;2022-12-18T12:44:39;54.70;;;23.90;;
24663;SDS011;12791;50.992;13.788;2022-12-18T12:47:11;53.17;;;24.27;;
24663;SDS011;12791;50.992;13.788;2022-12-18T12:49:42;48.10;;;25.40;;
24663;SDS011;12791;50.992;13.788;2022-12-18T12:52:14;54.25;;;23.90;;
24663;SDS011;12791;50.992;13.788;2022-12-18T12:54:51;50.75;;;24.60;;
24663;SDS011;12791;50.992;13.788;2022-12-18T12:57:19;43.70;;;23.13;;
24663;SDS011;12791;50.992;13.788;2022-12-18T12:59:50;51.95;;;25.38;;
24663;SDS011;12791;50.992;13.788;2022-12-18T13:02:24;57.42;;;29.38;;
24663;SDS011;12791;50.992;13.788;2022-12-18T13:04:58;49.35;;;24.58;;
24663;SDS011;12791;50.992;13.788;2022-12-18T13:07:32;50.00;;;24.23;;
24663;SDS011;12791;50.992;13.788;2022-12-18T13:10:11;49.53;;;24.67;;
24663;SDS011;12791;50.992;13.788;2022-12-18T13:12:53;46.90;;;23.80;;
24663;SDS011;12791;50.992;13.788;2022-12-18T13:15:24;48.10;;;25.17;;
24663;SDS011;12791;50.992;13.788;2022-12-18T13:20:46;49.28;;;24.27;;
24663;SDS011;12791;50.992;13.788;2022-12-18T13:23:29;50.90;;;25.48;;
24663;SDS011;12791;50.992;13.788;2022-12-18T13:25:59;51.65;;;25.42;;
24663;SDS011;12791;50.992;13.788;2022-12-18T13:28:51;46.38;;;24.52;;
24663;SDS011;12791;50.992;13.788;2022-12-18T13:34:28;52.28;;;25.40;;
24663;SDS011;12791;50.992;13.788;2022-12-18T13:36:56;48.58;;;23.67;;
24663;SDS011;12791;50.992;13.788;2022-12-18T13:39:45;49.05;;;24.10;;
24663;SDS011;12791;50.992;13.788;2022-12-18T13:45:38;51.72;;;26.88;;
24663;SDS011;12791;50.992;13.788;2022-12-18T13:48:14;54.42;;;27.17;;
24663;SDS011;12791;50.992;13.788;2022-12-18T13:50:43;50.50;;;25.65;;
24663;SDS011;12791;50.992;13.788;2022-12-18T13:53:16;50.17;;;25.13;;
24663;SDS011;12791;50.992;13.788;2022-12-18T13:55:48;50.13;;;25.02;;
24663;SDS011;12791;50.992;13.788;2022-12-18T13:58:16;52.78;;;26.58;;
24663;SDS011;12791;50.992;13.788;2022-12-18T14:00:43;45.15;;;23.92;;
24663;SDS011;12791;50.992;13.788;2022-12-18T14:03:16;44.50;;;23.80;;
24663;SDS011;12791;50.992;13.788;2022-12-18T14:05:45;53.72;;;26.05;;
24663;SDS011;12791;50.992;13.788;2022-12-18T14:10:45;43.80;;;22.52;;
24663;SDS011;12791;50.992;13.788;2022-12-18T14:13:17;47.00;;;23.02;;
24663;SDS011;12791;50.992;13.788;2022-12-18T14:15:48;51.70;;;23.85;;
24663;SDS011;12791;50.992;13.788;2022-12-18T14:18:19;48.80;;;24.23;;
24663;SDS011;12791;50.992;13.788;2022-12-18T14:20:49;46.50;;;23.73;;
24663;SDS011;12791;50.992;13.788;2022-12-18T14:23:27;47.40;;;24.58;;
24663;SDS011;12791;50.992;13.788;2022-12-18T14:25:56;45.78;;;23.17;;
24663;SDS011;12791;50.992;13.788;2022-12-18T14:28:25;43.63;;;22.40;;
24663;SDS011;12791;50.992;13.788;2022-12-18T14:30:52;51.95;;;24.30;;
24663;SDS011;12791;50.992;13.788;2022-12-18T14:33:20;47.63;;;23.90;;
24663;SDS011;12791;50.992;13.788;2022-12-18T14:35:57;50.30;;;25.25;;
24663;SDS011;12791;50.992;13.788;2022-12-18T14:38:29;46.72;;;23.80;;
24663;SDS011;12791;50.992;13.788;2022-12-18T14:40:57;45.78;;;22.98;;
24663;SDS011;12791;50.992;13.788;2022-12-18T14:43:27;48.30;;;24.35;;
24663;SDS011;12791;50.992;13.788;2022-12-18T14:45:55;45.72;;;22.73;;
24663;SDS011;12791;50.992;13.788;2022-12-18T14:48:30;50.15;;;23.83;;
24663;SDS011;12791;50.992;13.788;2022-12-18T14:51:02;45.08;;;23.45;;
24663;SDS011;12791;50.992;13.788;2022-12-18T14:53:40;50.42;;;25.10;;
24663;SDS011;12791;50.992;13.788;2022-12-18T14:56:13;49.33;;;25.55;;
24663;SDS011;12791;50.992;13.788;2022-12-18T14:58:47;49.13;;;24.05;;
24663;SDS011;12791;50.992;13.788;2022-12-18T15:01:20;51.22;;;25.40;;
24663;SDS011;12791;50.992;13.788;2022-12-18T15:03:50;49.20;;;24.27;;
24663;SDS011;12791;50.992;13.788;2022-12-18T15:06:21;54.00;;;26.20;;
24663;SDS011;12791;50.992;13.788;2022-12-18T15:08:52;50.47;;;25.90;;
24663;SDS011;12791;50.992;13.788;2022-12-18T15:11:27;51.83;;;25.42;;
24663;SDS011;12791;50.992;13.788;2022-12-18T15:17:06;55.50;;;25.53;;
24663;SDS011;12791;50.992;13.788;2022-12-18T15:19:42;57.00;;;27.15;;
24663;SDS011;12791;50.992;13.788;2022-12-18T15:22:21;58.30;;;25.83;;
24663;SDS011;12791;50.992;13.788;2022-12-18T15:24:50;59.28;;;28.13;;
24663;SDS011;12791;50.992;13.788;2022-12-18T15:27:22;55.58;;;25.15;;
24663;SDS011;12791;50.992;13.788;2022-12-18T15:32:48;53.92;;;28.55;;
24663;SDS011;12791;50.992;13.788;2022-12-18T15:35:17;51.28;;;25.83;;
24663;SDS011;12791;50.992;13.788;2022-12-18T15:37:46;51.95;;;25.52;;
24663;SDS011;12791;50.992;13.788;2022-12-18T15:40:14;55.67;;;26.85;;
24663;SDS011;12791;50.992;13.788;2022-12-18T15:42:42;52.38;;;26.10;;
24663;SDS011;12791;50.992;13.788;2022-12-18T15:45:27;51.80;;;26.63;;
24663;SDS011;12791;50.992;13.788;2022-12-18T15:47:55;55.72;;;28.13;;
24663;SDS011;12791;50.992;13.788;2022-12-18T15:50:22;57.00;;;28.25;;
24663;SDS011;12791;50.992;13.788;2022-12-18T15:52:50;63.20;;;32.90;;
24663;SDS011;12791;50.992;13.788;2022-12-18T15:55:19;62.97;;;32.20;;
24663;SDS011;12791;50.992;13.788;2022-12-18T15:58:05;59.85;;;30.70;;
24663;SDS011;12791;50.992;13.788;2022-12-18T16:00:33;56.65;;;28.85;;
24663;SDS011;12791;50.992;13.788;2022-12-18T16:03:03;55.70;;;27.73;;
24663;SDS011;12791;50.992;13.788;2022-12-18T16:05:30;56.30;;;26.33;;
24663;SDS011;12791;50.992;13.788;2022-12-18T16:07:57;57.10;;;27.63;;
24663;SDS011;12791;50.992;13.788;2022-12-18T16:10:24;56.13;;;28.30;;
24663;SDS011;12791;50.992;13.788;2022-12-18T16:12:52;55.88;;;28.05;;
24663;SDS011;12791;50.992;13.788;2022-12-18T16:15:19;48.03;;;25.65;;
24663;SDS011;12791;50.992;13.788;2022-12-18T16:17:46;48.28;;;25.00;;
24663;SDS011;12791;50.992;13.788;2022-12-18T16:20:15;53.83;;;24.83;;
24663;SDS011;12791;50.992;13.788;2022-12-18T16:22:44;49.33;;;24.60;;
24663;SDS011;12791;50.992;13.788;2022-12-18T16:25:15;52.47;;;24.65;;
24663;SDS011;12791;50.992;13.788;2022-12-18T16:27:44;54.90;;;25.70;;
24663;SDS011;12791;50.992;13.788;2022-12-18T16:30:12;52.75;;;25.42;;
24663;SDS011;12791;50.992;13.788;2022-12-18T16:32:40;54.50;;;26.33;;
24663;SDS011;12791;50.992;13.788;2022-12-18T16:35:08;51.83;;;25.40;;
24663;SDS011;12791;50.992;13.788;2022-12-18T16:37:39;52.80;;;27.13;;
24663;SDS011;12791;50.992;13.788;2022-12-18T16:40:06;50.03;;;24.95;;
24663;SDS011;12791;50.992;13.788;2022-12-18T16:42:34;47.55;;;23.80;;
24663;SDS011;12791;50.992;13.788;2022-12-18T16:45:02;54.08;;;26.33;;
24663;SDS011;12791;50.992;13.788;2022-12-18T16:47:30;52.70;;;25.60;;
24663;SDS011;12791;50.992;13.788;2022-12-18T16:49:57;54.78;;;25.30;;
24663;SDS011;12791;50.992;13.788;2022-12-18T16:52:24;55.95;;;26.02;;
24663;SDS011;12791;50.992;13.788;2022-12-18T16:54:52;52.63;;;23.98;;
24663;SDS011;12791;50.992;13.788;2022-12-18T16:57:20;49.42;;;25.55;;
24663;SDS011;12791;50.992;13.788;2022-12-18T16:59:47;51.80;;;25.38;;
24663;SDS011;12791;50.992;13.788;2022-12-18T17:02:15;50.22;;;23.48;;
24663;SDS011;12791;50.992;13.788;2022-12-18T17:04:43;50.38;;;24.35;;
24663;SDS011;12791;50.992;13.788;2022-12-18T17:07:11;50.30;;;24.13;;
24663;SDS011;12791;50.992;13.788;2022-12-18T17:09:38;52.03;;;24.52;;
24663;SDS011;12791;50.992;13.788;2022-12-18T17:12:07;49.35;;;24.95;;
24663;SDS011;12791;50.992;13.788;2022-12-18T17:14:34;52.13;;;25.27;;
24663;SDS011;12791;50.992;13.788;2022-12-18T17:17:01;56.50;;;24.83;;
24663;SDS011;12791;50.992;13.788;2022-12-18T17:19:28;49.53;;;24.27;;
24663;SDS011;12791;50.992;13.788;2022-12-18T17:21:55;48.05;;;24.10;;
24663;SDS011;12791;50.992;13.788;2022-12-18T17:24:22;51.15;;;24.92;;
24663;SDS011;12791;50.992;13.788;2022-12-18T17:26:49;52.25;;;24.88;;
24663;SDS011;12791;50.992;13.788;2022-12-18T17:29:18;54.42;;;26.13;;
24663;SDS011;12791;50.992;13.788;2022-12-18T17:31:46;52.50;;;26.33;;
24663;SDS011;12791;50.992;13.788;2022-12-18T17:34:13;51.17;;;25.30;;
24663;SDS011;12791;50.992;13.788;2022-12-18T17:36:40;59.83;;;25.63;;
24663;SDS011;12791;50.992;13.788;2022-12-18T17:39:10;55.22;;;26.80;;
24663;SDS011;12791;50.992;13.788;2022-12-18T17:41:43;57.10;;;27.80;;
24663;SDS011;12791;50.992;13.788;2022-12-18T17:44:10;57.00;;;26.75;;
24663;SDS011;12791;50.992;13.788;2022-12-18T17:46:38;57.17;;;27.75;;
24663;SDS011;12791;50.992;13.788;2022-12-18T17:49:05;59.67;;;27.75;;
24663;SDS011;12791;50.992;13.788;2022-12-18T17:51:32;60.13;;;27.80;;
24663;SDS011;12791;50.992;13.788;2022-12-18T17:53:59;56.55;;;27.73;;
24663;SDS011;12791;50.992;13.788;2022-12-18T17:56:26;61.97;;;29.65;;
24663;SDS011;12791;50.992;13.788;2022-12-18T17:58:53;59.40;;;28.80;;
24663;SDS011;12791;50.992;13.788;2022-12-18T18:01:21;59.10;;;27.10;;
24663;SDS011;12791;50.992;13.788;2022-12-18T18:03:51;55.55;;;26.52;;
24663;SDS011;12791;50.992;13.788;2022-12-18T18:06:19;59.42;;;26.27;;
24663;SDS011;12791;50.992;13.788;2022-12-18T18:08:47;56.55;;;27.60;;
24663;SDS011;12791;50.992;13.788;2022-12-18T18:11:15;52.15;;;26.08;;
24663;SDS011;12791;50.992;13.788;2022-12-18T18:14:03;50.45;;;25.70;;
24663;SDS011;12791;50.992;13.788;2022-12-18T18:16:33;52.25;;;26.00;;
24663;SDS011;12791;50.992;13.788;2022-12-18T18:19:03;52.55;;;25.67;;
24663;SDS011;12791;50.992;13.788;2022-12-18T18:21:32;46.55;;;24.10;;
24663;SDS011;12791;50.992;13.788;2022-12-18T18:24:00;50.55;;;23.27;;
24663;SDS011;12791;50.992;13.788;2022-12-18T18:26:27;52.40;;;24.65;;
24663;SDS011;12791;50.992;13.788;2022-12-18T18:28:56;48.03;;;23.95;;
24663;SDS011;12791;50.992;13.788;2022-12-18T18:31:24;46.13;;;23.08;;
24663;SDS011;12791;50.992;13.788;2022-12-18T18:33:52;44.63;;;22.38;;
24663;SDS011;12791;50.992;13.788;2022-12-18T18:36:21;45.78;;;22.60;;
24663;SDS011;12791;50.992;13.788;2022-12-18T18:38:49;45.70;;;23.13;;
24663;SDS011;12791;50.992;13.788;2022-12-18T18:41:16;42.97;;;22.48;;
24663;SDS011;12791;50.992;13.788;2022-12-18T18:43:43;43.78;;;22.77;;
24663;SDS011;12791;50.992;13.788;2022-12-18T18:46:10;45.40;;;21.90;;
24663;SDS011;12791;50.992;13.788;2022-12-18T18:48:38;45.65;;;22.10;;